sensor_id;sensor_type;location;lat;lon;timestamp;P1;durP1;ratioP1;P2;durP2;ratioP2
65581;SDS011;52231;40.090;18.348;2022-08-01T00:01:48;9.65;;;4.07;;
65581;SDS011;52231;40.090;18.348;2022-08-01T00:04:16;11.32;;;3.90;;
65581;SDS011;52231;40.090;18.348;2022-08-01T00:06:44;8.38;;;3.92;;
65581;SDS011;52231;40.090;18.348;2022-08-01T00:11:43;8.65;;;3.50;;
65581;SDS011;52231;40.090;18.348;2022-08-01T00:14:12;11.85;;;3.90;;
65581;SDS011;52231;40.090;18.348;2022-08-01T00:16:40;11.63;;;3.65;;
65581;SDS011;52231;40.090;18.348;2022-08-01T00:19:08;10.80;;;3.42;;
65581;SDS011;52231;40.090;18.348;2022-08-01T00:21:37;11.15;;;3.28;;
65581;SDS011;52231;40.090;18.348;2022-08-01T00:24:05;6.88;;;2.95;;
65581;SDS011;52231;40.090;18.348;2022-08-01T00:26:34;8.88;;;2.60;;
65581;SDS011;52231;40.090;18.348;2022-08-01T00:29:02;9.45;;;2.80;;
65581;SDS011;52231;40.090;18.348;2022-08-01T00:31:30;7.53;;;2.78;;
65581;SDS011;52231;40.090;18.348;2022-08-01T00:36:26;10.52;;;2.60;;
65581;SDS011;52231;40.090;18.348;2022-08-01T00:41:23;9.68;;;2.95;;
65581;SDS011;52231;40.090;18.348;2022-08-01T00:43:52;6.65;;;2.60;;
65581;SDS011;52231;40.090;18.348;2022-08-01T00:46:25;6.65;;;2.85;;
65581;SDS011;52231;40.090;18.348;2022-08-01T00:48:53;10.82;;;3.15;;
65581;SDS011;52231;40.090;18.348;2022-08-01T00:51:24;5.82;;;2.50;;
65581;SDS011;52231;40.090;18.348;2022-08-01T00:53:54;10.38;;;3.05;;
65581;SDS011;52231;40.090;18.348;2022-08-01T00:56:23;8.20;;;2.83;;
65581;SDS011;52231;40.090;18.348;2022-08-01T00:58:53;8.30;;;2.85;;
65581;SDS011;52231;40.090;18.348;2022-08-01T01:01:22;10.95;;;2.53;;
65581;SDS011;52231;40.090;18.348;2022-08-01T01:03:51;10.50;;;3.10;;
65581;SDS011;52231;40.090;18.348;2022-08-01T01:06:35;6.47;;;2.55;;
65581;SDS011;52231;40.090;18.348;2022-08-01T01:09:44;9.32;;;2.70;;
65581;SDS011;52231;40.090;18.348;2022-08-01T01:20:13;5.93;;;2.60;;
65581;SDS011;52231;40.090;18.348;2022-08-01T01:25:41;7.88;;;3.00;;
65581;SDS011;52231;40.090;18.348;2022-08-01T01:28:40;8.57;;;3.10;;
65581;SDS011;52231;40.090;18.348;2022-08-01T01:31:22;8.40;;;3.00;;
65581;SDS011;52231;40.090;18.348;2022-08-01T01:33:53;7.57;;;2.90;;
65581;SDS011;52231;40.090;18.348;2022-08-01T01:36:22;12.32;;;3.13;;
65581;SDS011;52231;40.090;18.348;2022-08-01T01:38:53;9.95;;;3.00;;
65581;SDS011;52231;40.090;18.348;2022-08-01T01:41:22;9.30;;;3.15;;
65581;SDS011;52231;40.090;18.348;2022-08-01T01:43:51;10.98;;;3.75;;
65581;SDS011;52231;40.090;18.348;2022-08-01T01:46:25;9.23;;;2.92;;
65581;SDS011;52231;40.090;18.348;2022-08-01T01:48:55;7.85;;;2.95;;
65581;SDS011;52231;40.090;18.348;2022-08-01T01:51:24;6.30;;;2.47;;
65581;SDS011;52231;40.090;18.348;2022-08-01T01:53:57;8.38;;;2.90;;
65581;SDS011;52231;40.090;18.348;2022-08-01T01:56:28;8.60;;;3.00;;
65581;SDS011;52231;40.090;18.348;2022-08-01T01:58:59;6.25;;;2.70;;
65581;SDS011;52231;40.090;18.348;2022-08-01T02:01:31;6.93;;;2.85;;
65581;SDS011;52231;40.090;18.348;2022-08-01T02:04:02;8.27;;;2.58;;
65581;SDS011;52231;40.090;18.348;2022-08-01T02:06:31;7.25;;;2.63;;
65581;SDS011;52231;40.090;18.348;2022-08-01T02:09:00;7.88;;;2.60;;
65581;SDS011;52231;40.090;18.348;2022-08-01T02:11:30;8.85;;;3.15;;
65581;SDS011;52231;40.090;18.348;2022-08-01T02:14:00;9.57;;;3.15;;
65581;SDS011;52231;40.090;18.348;2022-08-01T02:16:32;13.50;;;3.80;;
65581;SDS011;52231;40.090;18.348;2022-08-01T02:19:02;10.43;;;3.63;;
65581;SDS011;52231;40.090;18.348;2022-08-01T02:21:43;8.68;;;4.07;;
65581;SDS011;52231;40.090;18.348;2022-08-01T02:24:27;13.40;;;3.95;;
65581;SDS011;52231;40.090;18.348;2022-08-01T02:27:06;9.30;;;3.83;;
65581;SDS011;52231;40.090;18.348;2022-08-01T02:29:45;9.73;;;4.45;;
65581;SDS011;52231;40.090;18.348;2022-08-01T02:32:20;11.15;;;5.07;;
65581;SDS011;52231;40.090;18.348;2022-08-01T02:34:53;12.18;;;5.25;;
65581;SDS011;52231;40.090;18.348;2022-08-01T02:37:24;13.00;;;5.00;;
65581;SDS011;52231;40.090;18.348;2022-08-01T02:39:56;11.15;;;4.47;;
65581;SDS011;52231;40.090;18.348;2022-08-01T02:42:25;11.95;;;5.10;;
65581;SDS011;52231;40.090;18.348;2022-08-01T02:44:56;12.73;;;5.53;;
65581;SDS011;52231;40.090;18.348;2022-08-01T02:47:25;12.57;;;5.70;;
65581;SDS011;52231;40.090;18.348;2022-08-01T02:49:56;11.50;;;4.47;;
65581;SDS011;52231;40.090;18.348;2022-08-01T02:52:46;10.90;;;3.80;;
65581;SDS011;52231;40.090;18.348;2022-08-01T02:55:18;10.73;;;3.45;;
65581;SDS011;52231;40.090;18.348;2022-08-01T02:57:47;10.88;;;3.08;;
65581;SDS011;52231;40.090;18.348;2022-08-01T03:00:19;9.15;;;3.38;;
65581;SDS011;52231;40.090;18.348;2022-08-01T03:02:48;8.73;;;3.17;;
65581;SDS011;52231;40.090;18.348;2022-08-01T03:05:19;12.55;;;4.28;;
65581;SDS011;52231;40.090;18.348;2022-08-01T03:07:48;8.10;;;3.58;;
65581;SDS011;52231;40.090;18.348;2022-08-01T03:10:18;10.02;;;3.92;;
65581;SDS011;52231;40.090;18.348;2022-08-01T03:12:47;9.38;;;3.65;;
65581;SDS011;52231;40.090;18.348;2022-08-01T03:15:17;7.57;;;2.85;;
65581;SDS011;52231;40.090;18.348;2022-08-01T03:18:07;9.93;;;3.45;;
65581;SDS011;52231;40.090;18.348;2022-08-01T03:20:36;11.00;;;3.95;;
65581;SDS011;52231;40.090;18.348;2022-08-01T03:23:06;10.63;;;3.55;;
65581;SDS011;52231;40.090;18.348;2022-08-01T03:25:36;10.07;;;3.28;;
65581;SDS011;52231;40.090;18.348;2022-08-01T03:28:08;10.98;;;3.75;;
65581;SDS011;52231;40.090;18.348;2022-08-01T03:30:41;9.27;;;3.85;;
65581;SDS011;52231;40.090;18.348;2022-08-01T03:33:30;12.05;;;4.60;;
65581;SDS011;52231;40.090;18.348;2022-08-01T03:35:59;10.77;;;4.65;;
65581;SDS011;52231;40.090;18.348;2022-08-01T03:38:30;9.20;;;3.53;;
65581;SDS011;52231;40.090;18.348;2022-08-01T03:41:02;11.48;;;4.05;;
65581;SDS011;52231;40.090;18.348;2022-08-01T03:43:42;10.73;;;3.38;;
65581;SDS011;52231;40.090;18.348;2022-08-01T03:46:20;7.13;;;3.00;;
65581;SDS011;52231;40.090;18.348;2022-08-01T03:48:53;10.02;;;3.15;;
65581;SDS011;52231;40.090;18.348;2022-08-01T03:51:24;9.70;;;3.17;;
65581;SDS011;52231;40.090;18.348;2022-08-01T03:53:53;8.80;;;3.20;;
65581;SDS011;52231;40.090;18.348;2022-08-01T03:56:22;10.38;;;2.70;;
65581;SDS011;52231;40.090;18.348;2022-08-01T03:58:52;10.13;;;3.22;;
65581;SDS011;52231;40.090;18.348;2022-08-01T04:01:21;8.73;;;3.13;;
65581;SDS011;52231;40.090;18.348;2022-08-01T04:03:50;7.57;;;3.08;;
65581;SDS011;52231;40.090;18.348;2022-08-01T04:06:18;10.65;;;3.08;;
65581;SDS011;52231;40.090;18.348;2022-08-01T04:08:47;10.27;;;2.83;;
65581;SDS011;52231;40.090;18.348;2022-08-01T04:11:23;7.15;;;3.05;;
65581;SDS011;52231;40.090;18.348;2022-08-01T04:13:53;13.88;;;4.85;;
65581;SDS011;52231;40.090;18.348;2022-08-01T04:16:22;14.23;;;4.90;;
65581;SDS011;52231;40.090;18.348;2022-08-01T04:18:50;12.45;;;3.10;;
65581;SDS011;52231;40.090;18.348;2022-08-01T04:21:20;7.75;;;2.83;;
65581;SDS011;52231;40.090;18.348;2022-08-01T04:24:17;9.75;;;3.15;;
65581;SDS011;52231;40.090;18.348;2022-08-01T04:26:47;10.82;;;3.63;;
65581;SDS011;52231;40.090;18.348;2022-08-01T04:29:17;7.47;;;3.13;;
65581;SDS011;52231;40.090;18.348;2022-08-01T04:31:48;10.20;;;3.13;;
65581;SDS011;52231;40.090;18.348;2022-08-01T04:34:19;9.27;;;3.20;;
65581;SDS011;52231;40.090;18.348;2022-08-01T04:36:51;7.90;;;2.53;;
65581;SDS011;52231;40.090;18.348;2022-08-01T04:39:23;9.55;;;3.38;;
65581;SDS011;52231;40.090;18.348;2022-08-01T04:41:58;10.93;;;3.08;;
65581;SDS011;52231;40.090;18.348;2022-08-01T04:44:31;11.57;;;2.80;;
65581;SDS011;52231;40.090;18.348;2022-08-01T04:47:01;8.23;;;2.95;;
65581;SDS011;52231;40.090;18.348;2022-08-01T04:49:33;8.68;;;2.72;;
65581;SDS011;52231;40.090;18.348;2022-08-01T04:52:02;9.40;;;2.85;;
65581;SDS011;52231;40.090;18.348;2022-08-01T04:54:32;12.00;;;2.80;;
65581;SDS011;52231;40.090;18.348;2022-08-01T04:57:05;12.15;;;2.60;;
65581;SDS011;52231;40.090;18.348;2022-08-01T04:59:35;10.00;;;2.55;;
65581;SDS011;52231;40.090;18.348;2022-08-01T05:02:27;8.68;;;2.45;;
65581;SDS011;52231;40.090;18.348;2022-08-01T05:04:56;9.82;;;2.60;;
65581;SDS011;52231;40.090;18.348;2022-08-01T05:07:26;8.15;;;2.72;;
65581;SDS011;52231;40.090;18.348;2022-08-01T05:09:54;11.80;;;2.80;;
65581;SDS011;52231;40.090;18.348;2022-08-01T05:12:24;9.95;;;3.10;;
65581;SDS011;52231;40.090;18.348;2022-08-01T05:14:53;8.43;;;2.80;;
65581;SDS011;52231;40.090;18.348;2022-08-01T05:17:21;9.60;;;3.03;;
65581;SDS011;52231;40.090;18.348;2022-08-01T05:19:50;9.70;;;2.83;;
65581;SDS011;52231;40.090;18.348;2022-08-01T05:22:18;11.15;;;3.60;;
65581;SDS011;52231;40.090;18.348;2022-08-01T05:24:47;17.55;;;4.03;;
65581;SDS011;52231;40.090;18.348;2022-08-01T05:27:20;10.43;;;3.47;;
65581;SDS011;52231;40.090;18.348;2022-08-01T05:29:48;10.32;;;3.03;;
65581;SDS011;52231;40.090;18.348;2022-08-01T05:32:17;7.60;;;3.50;;
65581;SDS011;52231;40.090;18.348;2022-08-01T05:34:45;9.70;;;3.55;;
65581;SDS011;52231;40.090;18.348;2022-08-01T05:37:13;9.77;;;3.83;;
65581;SDS011;52231;40.090;18.348;2022-08-01T05:39:42;10.27;;;4.00;;
65581;SDS011;52231;40.090;18.348;2022-08-01T05:42:11;10.75;;;3.85;;
65581;SDS011;52231;40.090;18.348;2022-08-01T05:44:39;13.85;;;5.35;;
65581;SDS011;52231;40.090;18.348;2022-08-01T05:47:08;11.88;;;5.03;;
65581;SDS011;52231;40.090;18.348;2022-08-01T05:49:36;9.90;;;3.88;;
65581;SDS011;52231;40.090;18.348;2022-08-01T05:52:05;10.40;;;3.38;;
65581;SDS011;52231;40.090;18.348;2022-08-01T05:54:37;11.10;;;4.10;;
65581;SDS011;52231;40.090;18.348;2022-08-01T05:57:05;10.20;;;4.40;;
65581;SDS011;52231;40.090;18.348;2022-08-01T05:59:34;11.88;;;5.20;;
65581;SDS011;52231;40.090;18.348;2022-08-01T06:02:02;10.52;;;4.60;;
65581;SDS011;52231;40.090;18.348;2022-08-01T06:04:31;9.70;;;3.80;;
65581;SDS011;52231;40.090;18.348;2022-08-01T06:06:59;8.98;;;3.35;;
65581;SDS011;52231;40.090;18.348;2022-08-01T06:09:46;10.40;;;3.20;;
65581;SDS011;52231;40.090;18.348;2022-08-01T06:12:14;10.23;;;3.17;;
65581;SDS011;52231;40.090;18.348;2022-08-01T06:14:43;9.18;;;3.42;;
65581;SDS011;52231;40.090;18.348;2022-08-01T06:17:12;11.30;;;3.60;;
65581;SDS011;52231;40.090;18.348;2022-08-01T06:19:40;10.90;;;3.25;;
65581;SDS011;52231;40.090;18.348;2022-08-01T06:22:08;8.88;;;3.92;;
65581;SDS011;52231;40.090;18.348;2022-08-01T06:24:36;9.82;;;3.20;;
65581;SDS011;52231;40.090;18.348;2022-08-01T06:27:05;6.75;;;2.95;;
65581;SDS011;52231;40.090;18.348;2022-08-01T06:29:33;7.93;;;3.20;;
65581;SDS011;52231;40.090;18.348;2022-08-01T06:32:02;7.57;;;3.08;;
65581;SDS011;52231;40.090;18.348;2022-08-01T06:34:31;6.20;;;3.30;;
65581;SDS011;52231;40.090;18.348;2022-08-01T06:37:02;7.85;;;3.45;;
65581;SDS011;52231;40.090;18.348;2022-08-01T06:39:30;8.27;;;3.85;;
65581;SDS011;52231;40.090;18.348;2022-08-01T06:41:58;7.00;;;3.35;;
65581;SDS011;52231;40.090;18.348;2022-08-01T06:44:27;7.75;;;3.90;;
65581;SDS011;52231;40.090;18.348;2022-08-01T06:46:56;8.88;;;4.10;;
65581;SDS011;52231;40.090;18.348;2022-08-01T06:49:25;10.35;;;4.05;;
65581;SDS011;52231;40.090;18.348;2022-08-01T06:51:56;8.93;;;4.15;;
65581;SDS011;52231;40.090;18.348;2022-08-01T06:54:25;8.93;;;4.43;;
65581;SDS011;52231;40.090;18.348;2022-08-01T06:56:53;8.95;;;4.20;;
65581;SDS011;52231;40.090;18.348;2022-08-01T06:59:21;10.35;;;5.10;;
65581;SDS011;52231;40.090;18.348;2022-08-01T07:01:50;9.02;;;4.25;;
65581;SDS011;52231;40.090;18.348;2022-08-01T07:04:18;9.82;;;5.00;;
65581;SDS011;52231;40.090;18.348;2022-08-01T07:06:46;8.32;;;3.97;;
65581;SDS011;52231;40.090;18.348;2022-08-01T07:09:15;11.10;;;4.55;;
65581;SDS011;52231;40.090;18.348;2022-08-01T07:11:43;10.73;;;4.57;;
65581;SDS011;52231;40.090;18.348;2022-08-01T07:14:30;9.82;;;4.30;;
65581;SDS011;52231;40.090;18.348;2022-08-01T07:16:59;9.02;;;3.60;;
65581;SDS011;52231;40.090;18.348;2022-08-01T07:19:30;9.13;;;4.05;;
65581;SDS011;52231;40.090;18.348;2022-08-01T07:21:58;8.68;;;4.00;;
65581;SDS011;52231;40.090;18.348;2022-08-01T07:24:26;8.60;;;3.83;;
65581;SDS011;52231;40.090;18.348;2022-08-01T07:26:56;6.93;;;3.65;;
65581;SDS011;52231;40.090;18.348;2022-08-01T07:29:26;9.68;;;4.50;;
65581;SDS011;52231;40.090;18.348;2022-08-01T07:31:55;11.38;;;4.40;;
65581;SDS011;52231;40.090;18.348;2022-08-01T07:34:25;10.90;;;4.00;;
65581;SDS011;52231;40.090;18.348;2022-08-01T07:36:54;8.02;;;3.45;;
65581;SDS011;52231;40.090;18.348;2022-08-01T07:39:22;10.40;;;4.00;;
65581;SDS011;52231;40.090;18.348;2022-08-01T07:41:50;11.35;;;4.03;;
65581;SDS011;52231;40.090;18.348;2022-08-01T07:44:19;11.45;;;3.83;;
65581;SDS011;52231;40.090;18.348;2022-08-01T07:46:48;6.25;;;3.22;;
65581;SDS011;52231;40.090;18.348;2022-08-01T07:49:16;12.38;;;3.80;;
65581;SDS011;52231;40.090;18.348;2022-08-01T07:51:45;11.68;;;3.80;;
65581;SDS011;52231;40.090;18.348;2022-08-01T07:54:13;8.90;;;3.40;;
65581;SDS011;52231;40.090;18.348;2022-08-01T07:56:42;8.45;;;3.67;;
65581;SDS011;52231;40.090;18.348;2022-08-01T07:59:10;7.85;;;3.45;;
65581;SDS011;52231;40.090;18.348;2022-08-01T08:01:45;9.93;;;3.55;;
65581;SDS011;52231;40.090;18.348;2022-08-01T08:04:16;10.20;;;3.60;;
65581;SDS011;52231;40.090;18.348;2022-08-01T08:06:45;11.27;;;3.85;;
65581;SDS011;52231;40.090;18.348;2022-08-01T08:09:15;8.23;;;3.30;;
65581;SDS011;52231;40.090;18.348;2022-08-01T08:11:43;7.22;;;3.40;;
65581;SDS011;52231;40.090;18.348;2022-08-01T08:14:14;7.45;;;3.47;;
65581;SDS011;52231;40.090;18.348;2022-08-01T08:16:45;7.93;;;3.70;;
65581;SDS011;52231;40.090;18.348;2022-08-01T08:19:14;8.48;;;3.70;;
65581;SDS011;52231;40.090;18.348;2022-08-01T08:21:43;8.10;;;3.50;;
65581;SDS011;52231;40.090;18.348;2022-08-01T08:24:12;10.75;;;3.22;;
65581;SDS011;52231;40.090;18.348;2022-08-01T08:26:52;11.88;;;3.80;;
65581;SDS011;52231;40.090;18.348;2022-08-01T08:29:28;9.60;;;3.65;;
65581;SDS011;52231;40.090;18.348;2022-08-01T08:32:00;6.85;;;3.53;;
65581;SDS011;52231;40.090;18.348;2022-08-01T08:34:29;8.68;;;3.38;;
65581;SDS011;52231;40.090;18.348;2022-08-01T08:36:58;8.93;;;3.22;;
65581;SDS011;52231;40.090;18.348;2022-08-01T08:39:29;8.85;;;3.22;;
65581;SDS011;52231;40.090;18.348;2022-08-01T08:41:59;8.40;;;3.00;;
65581;SDS011;52231;40.090;18.348;2022-08-01T08:44:29;6.85;;;2.90;;
65581;SDS011;52231;40.090;18.348;2022-08-01T08:47:03;9.27;;;3.03;;
65581;SDS011;52231;40.090;18.348;2022-08-01T08:49:33;6.47;;;3.00;;
65581;SDS011;52231;40.090;18.348;2022-08-01T08:52:06;6.03;;;2.78;;
65581;SDS011;52231;40.090;18.348;2022-08-01T08:54:37;8.85;;;3.38;;
65581;SDS011;52231;40.090;18.348;2022-08-01T08:57:13;11.98;;;3.65;;
65581;SDS011;52231;40.090;18.348;2022-08-01T08:59:43;7.55;;;2.80;;
65581;SDS011;52231;40.090;18.348;2022-08-01T09:02:12;6.35;;;2.83;;
65581;SDS011;52231;40.090;18.348;2022-08-01T09:04:45;7.70;;;2.90;;
65581;SDS011;52231;40.090;18.348;2022-08-01T09:07:15;5.10;;;2.45;;
65581;SDS011;52231;40.090;18.348;2022-08-01T09:09:43;7.47;;;2.65;;
65581;SDS011;52231;40.090;18.348;2022-08-01T09:12:15;4.32;;;2.60;;
65581;SDS011;52231;40.090;18.348;2022-08-01T09:14:47;6.22;;;2.70;;
65581;SDS011;52231;40.090;18.348;2022-08-01T09:17:17;6.05;;;2.35;;
65581;SDS011;52231;40.090;18.348;2022-08-01T09:20:06;5.95;;;2.72;;
65581;SDS011;52231;40.090;18.348;2022-08-01T09:22:35;5.15;;;2.50;;
65581;SDS011;52231;40.090;18.348;2022-08-01T09:25:06;5.72;;;2.38;;
65581;SDS011;52231;40.090;18.348;2022-08-01T09:27:37;6.32;;;2.60;;
65581;SDS011;52231;40.090;18.348;2022-08-01T09:30:08;4.68;;;2.20;;
65581;SDS011;52231;40.090;18.348;2022-08-01T09:33:00;6.50;;;2.30;;
65581;SDS011;52231;40.090;18.348;2022-08-01T09:35:31;9.85;;;2.38;;
65581;SDS011;52231;40.090;18.348;2022-08-01T09:38:11;6.63;;;2.88;;
65581;SDS011;52231;40.090;18.348;2022-08-01T09:40:52;5.47;;;2.42;;
65581;SDS011;52231;40.090;18.348;2022-08-01T09:43:22;4.40;;;2.55;;
65581;SDS011;52231;40.090;18.348;2022-08-01T09:45:53;7.65;;;2.67;;
65581;SDS011;52231;40.090;18.348;2022-08-01T09:48:22;6.10;;;2.33;;
65581;SDS011;52231;40.090;18.348;2022-08-01T09:51:14;5.53;;;2.10;;
65581;SDS011;52231;40.090;18.348;2022-08-01T09:53:56;6.32;;;2.17;;
65581;SDS011;52231;40.090;18.348;2022-08-01T09:56:38;6.93;;;2.28;;
65581;SDS011;52231;40.090;18.348;2022-08-01T09:59:12;6.57;;;2.15;;
65581;SDS011;52231;40.090;18.348;2022-08-01T10:01:47;6.05;;;2.28;;
65581;SDS011;52231;40.090;18.348;2022-08-01T10:04:20;4.15;;;2.10;;
65581;SDS011;52231;40.090;18.348;2022-08-01T10:06:51;5.90;;;1.98;;
65581;SDS011;52231;40.090;18.348;2022-08-01T10:09:35;6.38;;;1.90;;
65581;SDS011;52231;40.090;18.348;2022-08-01T10:12:05;2.70;;;1.77;;
65581;SDS011;52231;40.090;18.348;2022-08-01T10:14:34;5.13;;;2.05;;
65581;SDS011;52231;40.090;18.348;2022-08-01T10:17:26;6.28;;;2.42;;
65581;SDS011;52231;40.090;18.348;2022-08-01T10:19:55;8.68;;;2.10;;
65581;SDS011;52231;40.090;18.348;2022-08-01T10:22:25;3.40;;;2.00;;
65581;SDS011;52231;40.090;18.348;2022-08-01T10:24:59;3.53;;;1.63;;
65581;SDS011;52231;40.090;18.348;2022-08-01T10:27:32;2.65;;;1.70;;
65581;SDS011;52231;40.090;18.348;2022-08-01T10:30:03;3.55;;;2.10;;
65581;SDS011;52231;40.090;18.348;2022-08-01T10:35:05;4.93;;;2.00;;
65581;SDS011;52231;40.090;18.348;2022-08-01T10:37:35;5.18;;;1.80;;
65581;SDS011;52231;40.090;18.348;2022-08-01T10:40:03;5.20;;;2.10;;
65581;SDS011;52231;40.090;18.348;2022-08-01T10:42:54;6.05;;;2.05;;
65581;SDS011;52231;40.090;18.348;2022-08-01T10:45:26;3.53;;;1.83;;
65581;SDS011;52231;40.090;18.348;2022-08-01T10:50:41;2.70;;;1.73;;
65581;SDS011;52231;40.090;18.348;2022-08-01T10:53:17;2.85;;;1.77;;
65581;SDS011;52231;40.090;18.348;2022-08-01T11:01:18;8.90;;;2.20;;
65581;SDS011;52231;40.090;18.348;2022-08-01T11:03:58;4.50;;;2.20;;
65581;SDS011;52231;40.090;18.348;2022-08-01T11:09:03;8.50;;;2.53;;
65581;SDS011;52231;40.090;18.348;2022-08-01T11:23:23;6.45;;;1.80;;
65581;SDS011;52231;40.090;18.348;2022-08-01T11:28:18;5.22;;;2.10;;
65581;SDS011;52231;40.090;18.348;2022-08-01T11:36:18;3.70;;;1.58;;
65581;SDS011;52231;40.090;18.348;2022-08-01T11:41:37;4.03;;;1.80;;
65581;SDS011;52231;40.090;18.348;2022-08-01T11:44:12;4.22;;;1.80;;
65581;SDS011;52231;40.090;18.348;2022-08-01T11:52:05;7.40;;;2.03;;
65581;SDS011;52231;40.090;18.348;2022-08-01T11:54:45;4.88;;;2.00;;
65581;SDS011;52231;40.090;18.348;2022-08-01T11:57:20;5.35;;;2.45;;
65581;SDS011;52231;40.090;18.348;2022-08-01T11:59:54;5.25;;;2.30;;
65581;SDS011;52231;40.090;18.348;2022-08-01T12:02:27;4.55;;;1.88;;
65581;SDS011;52231;40.090;18.348;2022-08-01T12:07:36;6.07;;;2.22;;
65581;SDS011;52231;40.090;18.348;2022-08-01T12:10:12;3.65;;;2.20;;
65581;SDS011;52231;40.090;18.348;2022-08-01T12:13:00;6.43;;;2.58;;
65581;SDS011;52231;40.090;18.348;2022-08-01T12:15:31;10.00;;;2.60;;
65581;SDS011;52231;40.090;18.348;2022-08-01T12:18:02;3.33;;;1.90;;
65581;SDS011;52231;40.090;18.348;2022-08-01T12:20:36;7.05;;;1.90;;
65581;SDS011;52231;40.090;18.348;2022-08-01T12:23:20;3.47;;;1.80;;
65581;SDS011;52231;40.090;18.348;2022-08-01T12:25:52;7.00;;;1.88;;
65581;SDS011;52231;40.090;18.348;2022-08-01T12:28:21;4.97;;;2.20;;
65581;SDS011;52231;40.090;18.348;2022-08-01T12:30:50;3.33;;;1.65;;
65581;SDS011;52231;40.090;18.348;2022-08-01T12:33:20;4.43;;;1.75;;
65581;SDS011;52231;40.090;18.348;2022-08-01T12:35:51;7.00;;;1.98;;
65581;SDS011;52231;40.090;18.348;2022-08-01T12:38:21;7.55;;;2.72;;
65581;SDS011;52231;40.090;18.348;2022-08-01T12:40:52;5.10;;;2.10;;
65581;SDS011;52231;40.090;18.348;2022-08-01T12:43:21;3.85;;;1.80;;
65581;SDS011;52231;40.090;18.348;2022-08-01T12:45:58;4.68;;;2.08;;
65581;SDS011;52231;40.090;18.348;2022-08-01T12:48:32;6.53;;;1.92;;
65581;SDS011;52231;40.090;18.348;2022-08-01T12:51:07;2.05;;;1.63;;
65581;SDS011;52231;40.090;18.348;2022-08-01T12:53:37;3.33;;;1.70;;
65581;SDS011;52231;40.090;18.348;2022-08-01T12:56:08;5.30;;;2.00;;
65581;SDS011;52231;40.090;18.348;2022-08-01T12:58:38;5.63;;;2.30;;
65581;SDS011;52231;40.090;18.348;2022-08-01T13:01:10;3.80;;;2.05;;
65581;SDS011;52231;40.090;18.348;2022-08-01T13:03:56;5.78;;;2.25;;
65581;SDS011;52231;40.090;18.348;2022-08-01T13:06:31;5.80;;;2.30;;
65581;SDS011;52231;40.090;18.348;2022-08-01T13:09:07;4.25;;;2.10;;
65581;SDS011;52231;40.090;18.348;2022-08-01T13:11:40;6.85;;;2.20;;
65581;SDS011;52231;40.090;18.348;2022-08-01T13:14:10;6.18;;;2.20;;
65581;SDS011;52231;40.090;18.348;2022-08-01T13:16:46;6.00;;;2.30;;
65581;SDS011;52231;40.090;18.348;2022-08-01T13:19:40;6.38;;;2.90;;
65581;SDS011;52231;40.090;18.348;2022-08-01T13:22:19;7.63;;;3.25;;
65581;SDS011;52231;40.090;18.348;2022-08-01T13:24:52;7.95;;;2.88;;
65581;SDS011;52231;40.090;18.348;2022-08-01T13:27:39;4.13;;;2.28;;
65581;SDS011;52231;40.090;18.348;2022-08-01T13:30:11;4.20;;;2.33;;
65581;SDS011;52231;40.090;18.348;2022-08-01T13:32:58;8.65;;;2.95;;
65581;SDS011;52231;40.090;18.348;2022-08-01T13:35:29;5.65;;;2.63;;
65581;SDS011;52231;40.090;18.348;2022-08-01T13:37:59;6.47;;;2.42;;
65581;SDS011;52231;40.090;18.348;2022-08-01T13:40:28;5.55;;;2.47;;
65581;SDS011;52231;40.090;18.348;2022-08-01T13:43:19;18.33;;;11.98;;
65581;SDS011;52231;40.090;18.348;2022-08-01T13:45:48;23.13;;;13.63;;
65581;SDS011;52231;40.090;18.348;2022-08-01T13:48:18;14.15;;;7.47;;
65581;SDS011;52231;40.090;18.348;2022-08-01T13:50:47;8.23;;;4.15;;
65581;SDS011;52231;40.090;18.348;2022-08-01T13:53:23;12.90;;;6.22;;
65581;SDS011;52231;40.090;18.348;2022-08-01T13:55:53;6.80;;;3.50;;
65581;SDS011;52231;40.090;18.348;2022-08-01T13:58:22;5.35;;;2.65;;
65581;SDS011;52231;40.090;18.348;2022-08-01T14:01:00;5.30;;;2.33;;
65581;SDS011;52231;40.090;18.348;2022-08-01T14:03:32;4.43;;;2.20;;
65581;SDS011;52231;40.090;18.348;2022-08-01T14:06:02;7.45;;;2.80;;
65581;SDS011;52231;40.090;18.348;2022-08-01T14:08:34;5.32;;;2.40;;
65581;SDS011;52231;40.090;18.348;2022-08-01T14:11:03;4.53;;;2.28;;
65581;SDS011;52231;40.090;18.348;2022-08-01T14:13:35;4.40;;;2.60;;
65581;SDS011;52231;40.090;18.348;2022-08-01T14:16:27;11.55;;;6.78;;
65581;SDS011;52231;40.090;18.348;2022-08-01T14:19:04;10.73;;;4.78;;
65581;SDS011;52231;40.090;18.348;2022-08-01T14:21:35;3.80;;;2.22;;
65581;SDS011;52231;40.090;18.348;2022-08-01T14:24:30;4.72;;;2.20;;
65581;SDS011;52231;40.090;18.348;2022-08-01T14:27:04;3.83;;;2.10;;
65581;SDS011;52231;40.090;18.348;2022-08-01T14:29:52;5.35;;;2.50;;
65581;SDS011;52231;40.090;18.348;2022-08-01T14:32:23;4.40;;;1.83;;
65581;SDS011;52231;40.090;18.348;2022-08-01T14:34:53;5.65;;;2.13;;
65581;SDS011;52231;40.090;18.348;2022-08-01T14:37:23;3.97;;;2.10;;
65581;SDS011;52231;40.090;18.348;2022-08-01T14:39:53;3.72;;;2.20;;
65581;SDS011;52231;40.090;18.348;2022-08-01T14:42:39;18.30;;;6.47;;
65581;SDS011;52231;40.090;18.348;2022-08-01T14:45:09;3.92;;;2.30;;
65581;SDS011;52231;40.090;18.348;2022-08-01T14:47:41;4.95;;;1.80;;
65581;SDS011;52231;40.090;18.348;2022-08-01T14:50:13;4.30;;;1.77;;
65581;SDS011;52231;40.090;18.348;2022-08-01T14:52:43;7.32;;;1.90;;
65581;SDS011;52231;40.090;18.348;2022-08-01T14:55:13;5.60;;;1.92;;
65581;SDS011;52231;40.090;18.348;2022-08-01T14:57:43;4.35;;;2.15;;
65581;SDS011;52231;40.090;18.348;2022-08-01T15:00:13;6.50;;;2.55;;
65581;SDS011;52231;40.090;18.348;2022-08-01T15:02:42;3.38;;;1.70;;
65581;SDS011;52231;40.090;18.348;2022-08-01T15:05:12;4.18;;;2.00;;
65581;SDS011;52231;40.090;18.348;2022-08-01T15:07:41;14.45;;;2.22;;
65581;SDS011;52231;40.090;18.348;2022-08-01T15:10:10;4.28;;;1.65;;
65581;SDS011;52231;40.090;18.348;2022-08-01T15:12:40;3.83;;;1.60;;
65581;SDS011;52231;40.090;18.348;2022-08-01T15:15:34;5.57;;;1.75;;
65581;SDS011;52231;40.090;18.348;2022-08-01T15:18:07;2.60;;;1.70;;
65581;SDS011;52231;40.090;18.348;2022-08-01T15:20:35;4.93;;;1.77;;
65581;SDS011;52231;40.090;18.348;2022-08-01T15:23:07;2.83;;;1.73;;
65581;SDS011;52231;40.090;18.348;2022-08-01T15:25:39;6.82;;;1.70;;
65581;SDS011;52231;40.090;18.348;2022-08-01T15:28:08;3.53;;;1.98;;
65581;SDS011;52231;40.090;18.348;2022-08-01T15:30:39;7.22;;;2.20;;
65581;SDS011;52231;40.090;18.348;2022-08-01T15:33:08;3.47;;;1.75;;
65581;SDS011;52231;40.090;18.348;2022-08-01T15:35:37;4.10;;;1.75;;
65581;SDS011;52231;40.090;18.348;2022-08-01T15:38:05;5.35;;;1.85;;
65581;SDS011;52231;40.090;18.348;2022-08-01T15:40:34;6.38;;;2.10;;
65581;SDS011;52231;40.090;18.348;2022-08-01T15:43:28;6.07;;;1.92;;
65581;SDS011;52231;40.090;18.348;2022-08-01T15:45:56;5.07;;;1.77;;
65581;SDS011;52231;40.090;18.348;2022-08-01T15:48:26;3.38;;;1.75;;
65581;SDS011;52231;40.090;18.348;2022-08-01T15:50:55;6.18;;;1.95;;
65581;SDS011;52231;40.090;18.348;2022-08-01T15:53:26;5.32;;;1.95;;
65581;SDS011;52231;40.090;18.348;2022-08-01T15:55:55;4.60;;;2.00;;
65581;SDS011;52231;40.090;18.348;2022-08-01T15:58:29;4.35;;;2.25;;
65581;SDS011;52231;40.090;18.348;2022-08-01T16:00:58;5.65;;;2.42;;
65581;SDS011;52231;40.090;18.348;2022-08-01T16:03:30;4.80;;;1.90;;